createdAt,value
2022-08-08T00:04:37.958Z,98885.06
2022-08-08T00:10:10.706Z,98891.75
2022-08-08T00:15:23.895Z,98892.16
2022-08-08T00:20:29.699Z,98885.84
2022-08-08T00:25:50.772Z,98892.97
2022-08-08T00:31:01.101Z,98892.19
2022-08-08T00:36:35.237Z,98889.81
2022-08-08T00:42:09.057Z,98889.84
2022-08-08T00:47:36.711Z,98896.91
2022-08-08T00:53:23.373Z,98900.84
2022-08-08T00:59:02.550Z,98906.34
2022-08-08T01:04:29.508Z,98899.28
2022-08-08T01:09:42.375Z,98890.63
2022-08-08T01:15:43.785Z,98884.75
2022-08-08T01:21:02.996Z,98887.53
2022-08-08T01:26:17.187Z,98893.78
2022-08-08T01:32:06.463Z,98883.56
2022-08-08T01:37:57.634Z,98884.31
2022-08-08T01:43:38.860Z,98881.13
2022-08-08T01:49:14.273Z,98892.16
2022-08-08T01:55:17.290Z,98887.38
2022-08-08T02:00:26.206Z,98888.09
2022-08-08T02:06:04.372Z,98880.19
2022-08-08T02:11:59.307Z,98893.59
2022-08-08T02:17:10.614Z,98898.94
2022-08-08T02:23:01.129Z,98901.53
2022-08-08T02:28:25.973Z,98904.34
2022-08-08T02:34:09.885Z,98907.53
2022-08-08T02:39:57.421Z,98899.53
2022-08-08T02:45:51.637Z,98898.06
2022-08-08T02:51:46.522Z,98896.38
2022-08-08T02:57:17.216Z,98898.41
2022-08-08T03:02:30.635Z,98911.34
2022-08-08T03:08:05.607Z,98909.75
2022-08-08T03:15:59.848Z,98912.13
2022-08-08T03:19:36.684Z,98911.19
2022-08-08T03:24:40.828Z,98915.06
2022-08-08T03:29:55.748Z,98910.38
2022-08-08T03:35:01.756Z,98916.59
2022-08-08T03:40:10.640Z,98913.47
2022-08-08T03:46:04.862Z,98911.91
2022-08-08T03:50:51.773Z,98921.69
2022-08-08T03:56:04.661Z,98933.72
2022-08-08T04:01:24.743Z,98934.91
2022-08-08T04:06:32.336Z,98936.09
2022-08-08T04:11:48.452Z,98935.34
2022-08-08T04:17:57.950Z,98955.03
2022-08-08T04:22:51.474Z,98948.72
2022-08-08T04:28:35.919Z,98951.22
2022-08-08T04:33:17.310Z,98954.50
2022-08-08T04:38:20.946Z,98950.63
2022-08-08T04:43:32.360Z,98966.00
2022-08-08T04:48:50.542Z,98970.41
2022-08-08T04:54:39.679Z,98969.72
2022-08-08T04:59:15.587Z,98981.56
2022-08-08T05:04:18.826Z,98973.75
2022-08-08T05:09:22.151Z,98977.31
2022-08-08T05:14:25.308Z,98980.88
2022-08-08T05:20:08.909Z,98981.69
2022-08-08T05:25:01.024Z,98982.50
2022-08-08T05:30:05.119Z,98978.59
2022-08-08T05:35:23.607Z,98983.31
2022-08-08T05:40:29.452Z,98999.03
2022-08-08T05:45:42.786Z,98992.78
2022-08-08T05:50:59.077Z,98999.06
2022-08-08T05:56:17.418Z,99006.88
2022-08-08T06:01:52.749Z,99004.50
2022-08-08T06:06:50.262Z,98994.25
2022-08-08T06:11:53.513Z,99004.03
2022-08-08T06:17:02.498Z,98997.63
2022-08-08T06:22:37.020Z,99010.50
2022-08-08T06:27:52.523Z,99005.88
2022-08-08T06:32:57.515Z,99008.28
2022-08-08T06:38:09.340Z,99017.53
2022-08-08T06:43:28.393Z,99010.03
2022-08-08T06:48:38.923Z,99014.31
2022-08-08T06:53:50.407Z,99026.59
2022-08-08T06:58:59.933Z,99018.78
2022-08-08T07:04:39.125Z,99008.88
2022-08-08T07:09:59.416Z,99016.78
2022-08-08T07:15:27.290Z,99017.09
2022-08-08T07:20:45.783Z,99018.50
2022-08-08T07:25:54.721Z,99024.84
2022-08-08T07:30:59.826Z,99031.38
2022-08-08T07:36:05.490Z,99030.19
2022-08-08T07:41:23.660Z,99032.13
2022-08-08T07:46:30.516Z,99040.13
2022-08-08T07:51:44.827Z,99036.19
2022-08-08T07:57:01.838Z,99049.16
2022-08-08T08:02:36.714Z,99044.09
2022-08-08T08:07:37.993Z,99036.81
2022-08-08T08:12:52.163Z,99038.75
2022-08-08T08:18:01.089Z,99022.69
2022-08-08T08:23:04.057Z,99035.88
2022-08-08T08:28:09.454Z,99041.91
2022-08-08T08:33:13.272Z,99040.44
2022-08-08T08:38:18.562Z,99042.25
2022-08-08T08:43:30.875Z,99041.53
2022-08-08T08:48:35.923Z,99043.63
2022-08-08T08:53:55.910Z,99041.28
2022-08-08T08:59:05.657Z,99037.38
2022-08-08T09:04:30.322Z,99039.50
2022-08-08T09:09:55.034Z,99032.78
2022-08-08T09:15:06.293Z,99040.28
2022-08-08T09:22:02.440Z,99029.63
2022-08-08T09:25:54.540Z,99021.66
2022-08-08T09:31:13.983Z,99024.84
2022-08-08T09:36:23.309Z,99019.47
2022-08-08T09:42:14.697Z,99025.44
2022-08-08T09:47:25.704Z,99018.22
2022-08-08T09:52:56.494Z,99011.16
2022-08-08T09:58:19.821Z,98999.09
2022-08-08T10:03:31.626Z,99014.09
2022-08-08T10:08:44.074Z,99005.69
2022-08-08T10:14:01.759Z,99014.38
2022-08-08T10:19:11.358Z,99002.41
2022-08-08T10:24:28.748Z,99019.28
2022-08-08T10:29:57.165Z,99005.28
2022-08-08T10:35:01.707Z,99001.97
2022-08-08T10:40:17.009Z,98996.31
2022-08-08T10:45:19.198Z,99002.72
2022-08-08T10:50:35.878Z,98983.03
2022-08-08T10:55:46.433Z,98984.72
2022-08-08T11:01:01.994Z,98992.31
2022-08-08T11:06:12.651Z,98982.19
2022-08-08T11:11:32.289Z,98994.16
2022-08-08T11:16:42.586Z,98980.78
2022-08-08T11:21:55.571Z,98989.03
2022-08-08T11:27:19.987Z,98982.41
2022-08-08T11:32:29.416Z,98982.13
2022-08-08T11:38:34.278Z,98972.72
2022-08-08T11:42:57.632Z,98975.47
2022-08-08T11:48:05.048Z,98974.53
2022-08-08T11:53:12.009Z,98987.00
2022-08-08T11:58:16.463Z,98969.16
2022-08-08T12:03:30.880Z,98966.25
2022-08-08T12:08:39.275Z,98964.09
2022-08-08T12:14:04.003Z,98968.38
2022-08-08T12:19:12.316Z,98960.66
2022-08-08T12:24:20.206Z,98952.94
2022-08-08T12:29:40.488Z,98955.75
2022-08-08T12:35:04.805Z,98949.81
2022-08-08T12:40:23.960Z,98958.75
2022-08-08T12:45:58.735Z,98948.50
2022-08-08T12:50:59.604Z,98965.59
2022-08-08T12:56:18.288Z,98958.13
2022-08-08T13:01:37.583Z,98950.66
2022-08-08T13:06:39.962Z,98964.00
2022-08-08T13:12:28.113Z,98951.28
2022-08-08T13:17:54.058Z,98945.09
2022-08-08T13:22:39.032Z,98946.97
2022-08-08T13:27:41.628Z,98947.28
2022-08-08T13:32:43.542Z,98942.00
2022-08-08T13:38:05.196Z,98943.53
2022-08-08T13:43:08.389Z,98935.63
2022-08-08T13:48:15.122Z,98922.72
2022-08-08T13:53:36.208Z,98923.31
2022-08-08T13:58:56.183Z,98925.19
2022-08-08T14:04:02.273Z,98920.84
2022-08-08T14:09:24.402Z,98932.63
2022-08-08T14:14:40.535Z,98927.22
2022-08-08T14:19:57.653Z,98925.03
2022-08-08T14:25:09.136Z,98919.97
2022-08-08T14:30:18.980Z,98933.34
2022-08-08T14:35:35.914Z,98923.28
2022-08-08T14:40:42.029Z,98922.50
2022-08-08T14:46:02.421Z,98925.31
2022-08-08T14:51:07.214Z,98925.63
2022-08-08T14:56:09.976Z,98935.25
2022-08-08T15:01:23.208Z,98919.25
2022-08-08T15:06:26.020Z,98931.84
2022-08-08T15:11:28.900Z,98937.44
2022-08-08T15:16:44.446Z,98922.22
2022-08-08T15:21:47.095Z,98922.22
2022-08-08T15:26:52.717Z,98920.34
2022-08-08T15:32:18.062Z,98931.50
2022-08-08T15:37:17.389Z,98928.88
2022-08-08T15:42:31.867Z,98919.66
2022-08-08T15:47:34.016Z,98932.03
2022-08-08T15:52:35.897Z,98932.59
2022-08-08T15:57:39.968Z,98927.94
2022-08-08T16:02:50.443Z,98931.84
2022-08-08T16:07:54.594Z,98929.34
2022-08-08T16:13:32.026Z,98928.31
2022-08-08T16:18:18.838Z,98933.22
2022-08-08T16:23:21.981Z,98921.31
2022-08-08T16:28:35.289Z,98922.06
2022-08-08T16:33:40.370Z,98930.16
2022-08-08T16:38:46.520Z,98923.94
2022-08-08T16:43:50.959Z,98919.41
2022-08-08T16:48:54.416Z,98926.94
2022-08-08T16:55:03.431Z,98937.59
2022-08-08T16:59:18.212Z,98939.44
2022-08-08T17:04:20.129Z,98942.34
2022-08-08T17:09:24.385Z,98945.41
2022-08-08T17:14:37.019Z,98944.00
2022-08-08T17:19:42.096Z,98950.94
2022-08-08T17:24:53.661Z,98946.88
2022-08-08T17:29:56.914Z,98953.59
2022-08-08T17:35:53.705Z,98957.88
2022-08-08T17:40:21.463Z,98949.56
2022-08-08T17:45:24.650Z,98959.53
2022-08-08T17:50:26.662Z,98953.88
2022-08-08T17:56:07.047Z,98964.72
2022-08-08T18:00:56.525Z,98973.75
2022-08-08T18:05:59.231Z,98965.31
2022-08-08T18:11:11.728Z,98971.22
2022-08-08T18:16:22.905Z,98971.44
2022-08-08T18:21:59.195Z,98972.03
2022-08-08T18:26:56.643Z,98973.16
2022-08-08T18:31:59.634Z,98980.16
2022-08-08T18:37:06.709Z,98984.09
2022-08-08T18:42:16.467Z,98994.53
2022-08-08T18:47:18.919Z,99006.75
2022-08-08T18:52:22.831Z,99018.94
2022-08-08T18:57:25.235Z,99023.47
2022-08-08T19:02:29.919Z,99023.38
2022-08-08T19:07:33.419Z,99029.50
2022-08-08T19:12:39.584Z,99038.28
2022-08-08T19:18:32.632Z,99048.09
2022-08-08T19:23:10.161Z,99048.72
2022-08-08T19:28:17.973Z,99054.00
2022-08-08T19:33:24.386Z,99055.00
2022-08-08T19:38:26.724Z,99062.97
2022-08-08T19:43:30.460Z,99058.25
2022-08-08T19:48:33.617Z,99067.75
2022-08-08T19:53:51.159Z,99077.53
2022-08-08T19:58:55.009Z,99074.28
2022-08-08T20:04:01.711Z,99076.41
2022-08-08T20:09:08.761Z,99074.13
2022-08-08T20:14:32.760Z,99079.75
2022-08-08T20:19:42.300Z,99079.13
2022-08-08T20:24:46.025Z,99090.31
2022-08-08T20:30:00.311Z,99087.25
2022-08-08T20:35:03.340Z,99088.63
2022-08-08T20:40:07.488Z,99086.09
2022-08-08T20:45:09.876Z,99087.78
2022-08-08T20:50:14.757Z,99082.25
2022-08-08T20:55:25.882Z,99078.03
2022-08-08T21:00:28.221Z,99084.91
2022-08-08T21:05:31.929Z,99085.75
2022-08-08T21:10:34.064Z,99080.25
2022-08-08T21:16:06.113Z,99087.84
2022-08-08T21:20:58.453Z,99088.34
2022-08-08T21:26:00.419Z,99097.22
2022-08-08T21:31:22.313Z,99080.72
2022-08-08T21:36:28.570Z,99100.53
2022-08-08T21:41:42.874Z,99096.78
2022-08-08T21:48:07.953Z,99100.09
2022-08-08T21:54:31.358Z,99110.38
2022-08-08T21:57:42.727Z,99114.38
2022-08-08T22:02:47.395Z,99093.91
2022-08-08T22:07:49.921Z,99106.63
2022-08-08T22:12:51.948Z,99100.00
2022-08-08T22:17:54.054Z,99099.63
2022-08-08T22:22:56.857Z,99106.81
2022-08-08T22:29:14.318Z,99102.97
2022-08-08T22:34:12.586Z,99105.50
2022-08-08T22:38:51.094Z,99103.22
2022-08-08T22:44:02.972Z,99111.19
2022-08-08T22:49:09.372Z,99113.22
2022-08-08T22:54:30.321Z,99117.59
2022-08-08T22:59:36.316Z,99118.41
2022-08-08T23:04:56.432Z,99121.19
2022-08-08T23:10:00.767Z,99119.28
2022-08-08T23:16:39.521Z,99123.31
2022-08-08T23:20:27.786Z,99128.88
2022-08-08T23:25:29.763Z,99130.50
2022-08-08T23:30:39.203Z,99125.41
2022-08-08T23:35:58.984Z,99122.75
2022-08-08T23:41:12.178Z,99120.44
2022-08-08T23:49:06.560Z,99110.63
2022-08-08T23:52:07.114Z,99109.13
2022-08-08T23:57:25.293Z,99120.63
